Time,TemperatureF,DewpointF,PressureIn,WindDirection,WindDirectionDegrees,WindSpeedMPH,WindSpeedGustMPH,Humidity,HourlyPrecipIn,Conditions,Clouds,dailyrainin,SoftwareType,DateUTC
2013-01-12 00:02:00,42.0,40.0,29.37,ESE,103,0.0,1.0,93,0.00,,,0.13,,2013-01-12 06:02:00,
2013-01-12 00:12:00,42.0,40.0,29.37,ESE,103,0.0,1.0,93,0.00,,,0.13,,2013-01-12 06:12:00,
2013-01-12 00:22:00,42.0,40.0,29.36,SSE,157,0.0,3.0,93,0.00,,,0.13,,2013-01-12 06:22:00,
2013-01-12 00:32:00,41.0,39.0,29.35,ESE,119,0.0,1.0,93,0.00,,,0.13,,2013-01-12 06:32:00,
2013-01-12 00:42:00,41.0,39.0,29.35,ESE,119,0.0,1.0,93,0.00,,,0.13,,2013-01-12 06:42:00,
2013-01-12 00:52:00,41.0,39.0,29.36,ESE,105,0.0,1.0,93,0.00,,,0.13,,2013-01-12 06:52:00,
2013-01-12 01:02:00,42.0,40.0,29.35,SE,141,0.0,1.0,93,0.00,,,0.12,,2013-01-12 07:02:00,
2013-01-12 01:12:00,42.0,40.0,29.36,East,99,0.0,2.0,93,0.00,,,0.12,,2013-01-12 07:12:00,
2013-01-12 01:22:00,42.0,40.0,29.36,East,99,0.0,2.0,93,0.00,,,0.12,,2013-01-12 07:22:00,
2013-01-12 01:32:00,42.0,40.0,29.36,East,98,0.0,1.0,93,0.00,,,0.12,,2013-01-12 07:32:00,
2013-01-12 01:42:00,42.0,40.0,29.36,East,98,0.0,1.0,93,0.00,,,0.12,,2013-01-12 07:42:00,
2013-01-12 01:52:00,42.0,40.0,29.36,East,87,0.0,1.0,93,0.00,,,0.12,,2013-01-12 07:52:00,
2013-01-12 02:02:00,42.0,40.0,29.37,ESE,103,0.0,1.0,93,0.00,,,0.12,,2013-01-12 08:02:00,
2013-01-12 02:11:00,42.0,40.0,29.37,ESE,103,0.0,1.0,93,0.00,,,0.12,,2013-01-12 08:11:00,
2013-01-12 02:22:00,42.0,40.0,29.38,SW,226,0.0,2.0,93,0.00,,,0.11,,2013-01-12 08:22:00,
2013-01-12 02:32:00,43.0,41.0,29.38,SSW,205,1.0,3.0,93,0.00,,,0.11,,2013-01-12 08:32:00,
2013-01-12 02:42:00,43.0,41.0,29.38,SSW,205,1.0,3.0,93,0.00,,,0.11,,2013-01-12 08:42:00,
2013-01-12 02:53:00,43.0,41.0,29.39,West,272,1.0,3.0,92,0.00,,,0.11,,2013-01-12 08:53:00,
2013-01-12 03:02:00,43.0,41.0,29.40,SW,217,1.0,5.0,91,0.00,,,0.11,,2013-01-12 09:02:00,
2013-01-12 03:12:00,43.0,41.0,29.40,SW,217,1.0,5.0,91,0.00,,,0.11,,2013-01-12 09:12:00,
2013-01-12 03:22:00,42.0,40.0,29.39,WSW,255,1.0,3.0,91,0.00,,,0.11,,2013-01-12 09:22:00,
2013-01-12 03:32:00,41.0,38.0,29.40,WSW,246,2.0,5.0,90,0.00,,,0.10,,2013-01-12 09:32:00,
2013-01-12 03:42:00,41.0,38.0,29.40,WSW,246,2.0,5.0,90,0.00,,,0.10,,2013-01-12 09:42:00,
2013-01-12 03:53:00,41.0,38.0,29.40,WSW,248,1.0,2.0,90,0.00,,,0.10,,2013-01-12 09:53:00,
2013-01-12 04:02:00,40.0,37.0,29.42,SW,228,1.0,3.0,89,0.00,,,0.10,,2013-01-12 10:02:00,
2013-01-12 04:12:00,40.0,37.0,29.42,SW,228,1.0,3.0,89,0.00,,,0.10,,2013-01-12 10:12:00,
2013-01-12 04:22:00,40.0,35.0,29.42,SSW,212,5.0,10.0,83,0.00,,,0.09,,2013-01-12 10:22:00,
2013-01-12 04:32:00,40.0,35.0,29.43,SW,235,2.0,6.0,83,0.00,,,0.09,,2013-01-12 10:32:00,
2013-01-12 04:42:00,40.0,35.0,29.43,SW,235,2.0,6.0,83,0.00,,,0.09,,2013-01-12 10:42:00,
2013-01-12 04:52:00,39.0,34.0,29.44,WSW,243,3.0,9.0,82,0.00,,,0.09,,2013-01-12 10:52:00,
2013-01-12 05:02:00,38.0,33.0,29.46,SSW,207,3.0,9.0,82,0.00,,,0.09,,2013-01-12 11:02:00,
2013-01-12 05:12:00,36.0,31.0,29.47,SW,236,1.0,5.0,82,0.00,,,0.09,,2013-01-12 11:12:00,
2013-01-12 05:22:00,36.0,31.0,29.47,SW,236,1.0,5.0,82,0.00,,,0.09,,2013-01-12 11:22:00,
2013-01-12 05:32:00,35.0,30.0,29.49,SW,229,2.0,6.0,83,0.00,,,0.09,,2013-01-12 11:32:00,
2013-01-12 05:42:00,35.0,30.0,29.49,SW,229,2.0,6.0,83,0.00,,,0.09,,2013-01-12 11:42:00,
2013-01-12 05:53:00,34.0,29.0,29.51,SSW,211,3.0,13.0,83,0.00,,,0.08,,2013-01-12 11:53:00,
2013-01-12 06:02:00,34.0,29.0,29.53,WSW,248,4.0,8.0,83,0.00,,,0.08,,2013-01-12 12:02:00,
2013-01-12 06:12:00,34.0,29.0,29.53,WSW,248,4.0,8.0,83,0.00,,,0.08,,2013-01-12 12:12:00,
2013-01-12 06:22:00,32.0,27.0,29.55,SSW,211,3.0,9.0,82,0.00,,,0.08,,2013-01-12 12:22:00,
2013-01-12 06:32:00,30.0,25.0,29.56,SSW,200,5.0,10.0,81,0.00,,,0.08,,2013-01-12 12:32:00,
2013-01-12 06:42:00,30.0,25.0,29.56,SSW,200,5.0,10.0,81,0.00,,,0.08,,2013-01-12 12:42:00,
2013-01-12 06:52:00,30.0,25.0,29.58,SW,225,6.0,15.0,81,0.00,,,0.08,,2013-01-12 12:52:00,
2013-01-12 07:02:00,29.0,24.0,29.59,SW,232,3.0,6.0,80,0.00,,,0.08,,2013-01-12 13:02:00,
2013-01-12 07:12:00,29.0,24.0,29.59,SW,232,3.0,6.0,80,0.00,,,0.08,,2013-01-12 13:12:00,
2013-01-12 07:22:00,28.0,23.0,29.61,WSW,240,3.0,8.0,81,0.00,,,0.08,,2013-01-12 13:22:00,
2013-01-12 07:33:00,28.0,23.0,29.62,SSW,205,3.0,7.0,80,0.00,,,0.08,,2013-01-12 13:33:00,
2013-01-12 07:42:00,28.0,23.0,29.62,SSW,205,3.0,7.0,80,0.00,,,0.08,,2013-01-12 13:42:00,
2013-01-12 07:52:00,27.0,22.0,29.64,WSW,245,2.0,8.0,81,0.00,,,0.08,,2013-01-12 13:52:00,
2013-01-12 08:02:00,26.0,20.0,29.67,SW,225,4.0,13.0,79,0.00,,,0.07,,2013-01-12 14:02:00,
2013-01-12 08:12:00,26.0,20.0,29.67,SW,225,4.0,13.0,79,0.00,,,0.07,,2013-01-12 14:12:00,
2013-01-12 08:22:00,25.0,19.0,29.68,West,267,5.0,12.0,78,0.00,,,0.07,,2013-01-12 14:22:00,
2013-01-12 08:32:00,25.0,19.0,29.70,SW,232,2.0,6.0,78,0.00,,,0.07,,2013-01-12 14:32:00,
2013-01-12 08:43:00,25.0,19.0,29.70,SW,232,2.0,6.0,78,0.00,,,0.07,,2013-01-12 14:43:00,
2013-01-12 08:53:00,25.0,18.0,29.70,SW,231,4.0,12.0,73,0.00,,,0.07,,2013-01-12 14:53:00,
2013-01-12 09:03:00,24.0,16.0,29.71,SW,215,5.0,10.0,71,0.00,,,0.07,,2013-01-12 15:03:00,
2013-01-12 09:12:00,24.0,16.0,29.72,SW,232,4.0,12.0,70,0.00,,,0.06,,2013-01-12 15:12:00,
2013-01-12 09:22:00,24.0,16.0,29.72,SW,232,4.0,12.0,70,0.00,,,0.06,,2013-01-12 15:22:00,
2013-01-12 09:33:00,24.0,16.0,29.73,WSW,239,3.0,10.0,71,0.00,,,0.06,,2013-01-12 15:33:00,
2013-01-12 09:42:00,24.0,16.0,29.73,WSW,239,3.0,10.0,71,0.00,,,0.06,,2013-01-12 15:42:00,
2013-01-12 09:53:00,23.0,15.0,29.74,WSW,240,2.0,7.0,72,0.00,,,0.06,,2013-01-12 15:53:00,
2013-01-12 10:03:00,23.0,15.0,29.75,South,171,5.0,10.0,71,0.00,,,0.06,,2013-01-12 16:03:00,
2013-01-12 10:12:00,23.0,15.0,29.75,South,171,5.0,10.0,71,0.00,,,0.06,,2013-01-12 16:12:00,
2013-01-12 10:23:00,22.0,13.0,29.75,WNW,284,5.0,12.0,69,0.00,,,0.06,,2013-01-12 16:23:00,
2013-01-12 10:33:00,22.0,13.0,29.78,West,267,3.0,10.0,69,0.00,,,0.05,,2013-01-12 16:33:00,
2013-01-12 10:42:00,22.0,13.0,29.79,West,264,3.0,5.0,67,0.00,,,0.05,,2013-01-12 16:42:00,
2013-01-12 10:52:00,22.0,13.0,29.79,West,264,3.0,5.0,67,0.00,,,0.05,,2013-01-12 16:52:00,
2013-01-12 11:02:00,21.0,12.0,29.80,WSW,240,3.0,9.0,67,0.00,,,0.04,,2013-01-12 17:02:00,
2013-01-12 11:12:00,21.0,12.0,29.80,WSW,240,3.0,9.0,67,0.00,,,0.04,,2013-01-12 17:12:00,
2013-01-12 11:22:00,21.0,12.0,29.80,WSW,253,2.0,6.0,68,0.00,,,0.04,,2013-01-12 17:22:00,
2013-01-12 11:33:00,21.0,12.0,29.80,SW,230,3.0,6.0,68,0.00,,,0.04,,2013-01-12 17:33:00,
2013-01-12 11:42:00,21.0,12.0,29.80,SW,230,3.0,6.0,68,0.00,,,0.04,,2013-01-12 17:42:00,
2013-01-12 11:53:00,21.0,12.0,29.81,WSW,254,4.0,8.0,67,0.00,,,0.04,,2013-01-12 17:53:00,
2013-01-12 12:03:00,20.0,11.0,29.80,NW,306,4.0,9.0,67,0.00,,,0.03,,2013-01-12 18:03:00,
2013-01-12 12:12:00,20.0,11.0,29.80,NW,306,4.0,9.0,67,0.00,,,0.03,,2013-01-12 18:12:00,
2013-01-12 12:22:00,20.0,11.0,29.80,SSW,209,2.0,9.0,69,0.00,,,0.03,,2013-01-12 18:22:00,
2013-01-12 12:33:00,20.0,11.0,29.82,SW,234,3.0,7.0,66,0.00,,,0.03,,2013-01-12 18:33:00,
2013-01-12 12:42:00,20.0,11.0,29.82,SW,234,3.0,7.0,66,0.00,,,0.03,,2013-01-12 18:42:00,
2013-01-12 12:52:00,20.0,11.0,29.82,WSW,239,3.0,7.0,67,0.00,,,0.03,,2013-01-12 18:52:00,
2013-01-12 13:03:00,20.0,11.0,29.82,SW,228,3.0,8.0,67,0.00,,,0.02,,2013-01-12 19:03:00,
2013-01-12 13:12:00,20.0,11.0,29.82,SW,228,3.0,8.0,67,0.00,,,0.02,,2013-01-12 19:12:00,
2013-01-12 13:22:00,19.0,10.0,29.83,SW,222,4.0,8.0,67,0.00,,,0.02,,2013-01-12 19:22:00,
2013-01-12 13:33:00,19.0,10.0,29.85,WSW,251,3.0,6.0,68,0.00,,,0.02,,2013-01-12 19:33:00,
2013-01-12 13:42:00,19.0,10.0,29.85,WSW,251,3.0,6.0,68,0.00,,,0.02,,2013-01-12 19:42:00,
2013-01-12 13:53:00,19.0,10.0,29.87,SSW,194,1.0,3.0,67,0.00,,,0.02,,2013-01-12 19:53:00,
2013-01-12 14:02:00,19.0,10.0,29.86,SW,222,2.0,5.0,67,0.00,,,0.02,,2013-01-12 20:02:00,
2013-01-12 14:12:00,18.0,10.0,29.85,SW,229,2.0,6.0,69,0.00,,,0.02,,2013-01-12 20:12:00,
2013-01-12 14:22:00,18.0,10.0,29.85,SW,229,2.0,6.0,69,0.00,,,0.02,,2013-01-12 20:22:00,
2013-01-12 14:32:00,18.0,9.0,29.87,WSW,255,4.0,8.0,68,0.00,,,0.02,,2013-01-12 20:32:00,
2013-01-12 14:42:00,18.0,9.0,29.87,WSW,255,4.0,8.0,68,0.00,,,0.02,,2013-01-12 20:42:00,
2013-01-12 14:53:00,18.0,9.0,29.88,SW,217,2.0,6.0,66,0.00,,,0.02,,2013-01-12 20:53:00,
2013-01-12 15:02:00,18.0,9.0,29.90,SW,225,2.0,6.0,67,0.00,,,0.02,,2013-01-12 21:02:00,
2013-01-12 15:12:00,18.0,8.0,29.90,SW,222,3.0,6.0,65,0.00,,,0.02,,2013-01-12 21:12:00,
2013-01-12 15:22:00,18.0,8.0,29.90,SW,222,3.0,6.0,65,0.00,,,0.02,,2013-01-12 21:22:00,
2013-01-12 15:33:00,17.0,8.0,29.90,WSW,250,3.0,8.0,66,0.00,,,0.02,,2013-01-12 21:33:00,
2013-01-12 15:42:00,17.0,8.0,29.90,WSW,250,3.0,8.0,66,0.00,,,0.02,,2013-01-12 21:42:00,
2013-01-12 15:52:00,18.0,9.0,29.90,WSW,248,2.0,5.0,68,0.00,,,0.02,,2013-01-12 21:52:00,
2013-01-12 16:02:00,17.0,8.0,29.88,WSW,242,2.0,7.0,68,0.00,,,0.02,,2013-01-12 22:02:00,
2013-01-12 16:12:00,17.0,8.0,29.88,WSW,242,2.0,7.0,68,0.00,,,0.02,,2013-01-12 22:12:00,
2013-01-12 16:22:00,17.0,8.0,29.88,SW,229,1.0,3.0,68,0.00,,,0.02,,2013-01-12 22:22:00,
2013-01-12 16:33:00,16.0,7.0,29.91,WSW,248,1.0,3.0,67,0.00,,,0.01,,2013-01-12 22:33:00,
2013-01-12 16:43:00,16.0,7.0,29.91,WSW,248,1.0,3.0,67,0.00,,,0.01,,2013-01-12 22:43:00,
2013-01-12 16:52:00,16.0,7.0,29.92,WSW,239,2.0,5.0,66,0.00,,,0.01,,2013-01-12 22:52:00,
2013-01-12 17:03:00,16.0,7.0,29.93,WSW,246,2.0,10.0,67,0.00,,,0.01,,2013-01-12 23:03:00,
2013-01-12 17:12:00,15.0,6.0,29.95,SW,236,1.0,3.0,67,0.00,,,0.01,,2013-01-12 23:12:00,
2013-01-12 17:22:00,15.0,6.0,29.95,SW,236,1.0,3.0,67,0.00,,,0.01,,2013-01-12 23:22:00,
2013-01-12 17:33:00,15.0,6.0,29.96,SW,235,2.0,5.0,67,0.00,,,0.01,,2013-01-12 23:33:00,
2013-01-12 17:42:00,15.0,6.0,29.96,SW,235,2.0,5.0,67,0.00,,,0.01,,2013-01-12 23:42:00,
2013-01-12 17:53:00,15.0,6.0,29.97,SW,219,1.0,6.0,67,0.00,,,0.01,,2013-01-12 23:53:00,
2013-01-12 18:03:00,15.0,6.0,29.96,SW,226,3.0,5.0,67,0.00,,,0.01,,2013-01-13 00:03:00,
2013-01-12 18:12:00,15.0,6.0,29.96,SW,226,3.0,5.0,67,0.00,,,0.01,,2013-01-13 00:12:00,
2013-01-12 18:22:00,15.0,6.0,29.95,WSW,240,1.0,3.0,67,0.00,,,0.01,,2013-01-13 00:22:00,
2013-01-12 18:32:00,15.0,6.0,29.96,WSW,240,2.0,3.0,66,0.00,,,0.00,,2013-01-13 00:32:00,
2013-01-12 18:42:00,15.0,6.0,29.96,WSW,240,2.0,3.0,66,0.00,,,0.00,,2013-01-13 00:42:00,
2013-01-12 18:53:00,15.0,6.0,29.97,WSW,252,1.0,3.0,67,0.00,,,0.00,,2013-01-13 00:53:00,
2013-01-12 19:02:00,14.0,6.0,29.96,SW,214,2.0,6.0,69,0.00,,,0.00,,2013-01-13 01:02:00,
2013-01-12 19:12:00,14.0,6.0,29.96,SW,214,2.0,6.0,69,0.00,,,0.00,,2013-01-13 01:12:00,
2013-01-12 19:22:00,14.0,5.0,29.96,SW,217,2.0,5.0,67,0.00,,,0.00,,2013-01-13 01:22:00,
2013-01-12 19:32:00,14.0,5.0,29.97,West,277,1.0,3.0,68,0.00,,,0.00,,2013-01-13 01:32:00,
2013-01-12 19:43:00,14.0,5.0,29.97,West,277,1.0,3.0,68,0.00,,,0.00,,2013-01-13 01:43:00,
2013-01-12 19:53:00,14.0,5.0,29.96,West,277,1.0,3.0,68,0.00,,,0.00,,2013-01-13 01:53:00,
2013-01-12 20:02:00,13.0,4.0,29.96,WSW,248,1.0,3.0,68,0.00,,,0.00,,2013-01-13 02:02:00,
2013-01-12 20:12:00,13.0,4.0,29.96,WSW,248,1.0,3.0,68,0.00,,,0.00,,2013-01-13 02:12:00,
2013-01-12 20:22:00,13.0,4.0,29.98,WSW,254,1.0,3.0,67,0.00,,,0.00,,2013-01-13 02:22:00,
2013-01-12 20:32:00,13.0,4.0,29.97,WSW,256,1.0,3.0,66,0.00,,,0.00,,2013-01-13 02:32:00,
2013-01-12 20:42:00,13.0,4.0,29.97,WSW,256,1.0,3.0,66,0.00,,,0.00,,2013-01-13 02:42:00,
2013-01-12 20:53:00,12.0,3.0,30.00,West,261,2.0,6.0,66,0.00,,,0.00,,2013-01-13 02:53:00,
2013-01-12 21:02:00,12.0,4.0,30.01,SSW,198,0.0,3.0,68,0.00,,,0.00,,2013-01-13 03:02:00,
2013-01-12 21:12:00,12.0,4.0,30.01,SSW,198,0.0,3.0,68,0.00,,,0.00,,2013-01-13 03:12:00,
2013-01-12 21:22:00,12.0,4.0,30.00,SW,216,1.0,3.0,69,0.00,,,0.00,,2013-01-13 03:22:00,
2013-01-12 21:33:00,12.0,4.0,30.01,SW,222,1.0,3.0,68,0.00,,,0.00,,2013-01-13 03:33:00,
2013-01-12 21:42:00,12.0,4.0,30.01,SW,222,1.0,3.0,68,0.00,,,0.00,,2013-01-13 03:42:00,
2013-01-12 21:52:00,12.0,4.0,30.01,West,269,1.0,3.0,70,0.00,,,0.00,,2013-01-13 03:52:00,
2013-01-12 22:02:00,12.0,4.0,30.00,WSW,250,1.0,3.0,70,0.00,,,0.00,,2013-01-13 04:02:00,
2013-01-12 22:12:00,12.0,4.0,30.00,WSW,250,1.0,3.0,70,0.00,,,0.00,,2013-01-13 04:12:00,
2013-01-12 22:22:00,12.0,5.0,29.99,SW,234,1.0,3.0,72,0.00,,,0.00,,2013-01-13 04:22:00,
2013-01-12 22:32:00,11.0,2.0,30.00,WSW,256,0.0,3.0,67,0.00,,,0.00,,2013-01-13 04:32:00,
2013-01-12 22:42:00,11.0,2.0,30.00,WSW,256,0.0,3.0,67,0.00,,,0.00,,2013-01-13 04:42:00,
2013-01-12 22:52:00,11.0,3.0,30.01,SW,218,1.0,3.0,68,0.00,,,0.00,,2013-01-13 04:52:00,
2013-01-12 23:03:00,11.0,3.0,30.01,West,264,0.0,2.0,69,0.00,,,0.00,,2013-01-13 05:03:00,
2013-01-12 23:12:00,11.0,3.0,30.01,West,264,0.0,2.0,69,0.00,,,0.00,,2013-01-13 05:12:00,
2013-01-12 23:22:00,11.0,3.0,30.01,West,277,0.0,2.0,69,0.00,,,0.00,,2013-01-13 05:22:00,
2013-01-12 23:32:00,11.0,3.0,30.00,West,267,0.0,1.0,69,0.00,,,0.00,,2013-01-13 05:32:00,
2013-01-12 23:42:00,11.0,3.0,30.00,West,267,0.0,1.0,69,0.00,,,0.00,,2013-01-13 05:42:00,
2013-01-12 23:52:00,11.0,3.0,30.00,WSW,257,1.0,3.0,70,0.00,,,0.00,,2013-01-13 05:52:00,